This is the latest recevied weather packets stored in our database for station/object N2UGS-WX. If no packets are shown the sender has not sent any weather packets the latest 10 day(s).
| Time | Temp. | Humidity | Pressure | Rain* | Wind** | Luminosity | Snow |
|---|---|---|---|---|---|---|---|
| 1778051102 | 8.33° C | 99% | 1008.8 hPa | 1.27 mm | - | - | - |
| 1778050443 | 8.33° C | 99% | 1009.1 hPa | 1.02 mm | - | - | - |
| 1778049842 | 8.33° C | 99% | 1009.1 hPa | 1.02 mm | - | - | - |
| 1778049002 | 8.33° C | 99% | 1008.8 hPa | 0.76 mm | - | - | - |
| 1778048102 | 8.89° C | 99% | 1008.5 hPa | 1.27 mm | - | - | - |
| 1778047202 | 8.89° C | 98% | 1008.8 hPa | 1.27 mm | - | - | - |
| 1778046302 | 8.89° C | 98% | 1009.1 hPa | 2.54 mm | - | - | - |
| 1778045403 | 8.89° C | 98% | 1009.5 hPa | 2.79 mm | - | - | - |
| 1778044502 | 8.89° C | 98% | 1009.8 hPa | 3.05 mm | - | - | - |
| 1778043602 | 8.89° C | 98% | 1009.5 hPa | 2.54 mm | - | - | - |
| 1778042702 | 8.89° C | 98% | 1009.5 hPa | 1.52 mm | - | - | - |
| 1778041802 | 8.89° C | 98% | 1009.1 hPa | 0.76 mm | - | - | - |
| 1778040903 | 8.89° C | 98% | 1009.1 hPa | 0.51 mm | - | - | - |
| 1778040003 | 8.89° C | 98% | 1009.1 hPa | 0.51 mm | - | - | - |
| 1778039702 | 8.89° C | 98% | 1009.1 hPa | 1.02 mm | - | - | - |
| 1778038802 | 8.89° C | 98% | 1009.1 hPa | 1.27 mm | - | - | - |
| 1778037901 | 9.44° C | 98% | 1009.5 hPa | 2.03 mm | - | - | - |
| 1778037003 | 9.44° C | 98% | 1009.5 hPa | 1.52 mm | - | - | - |
| 1778036103 | 9.44° C | 98% | 1009.5 hPa | 1.02 mm | - | - | - |
| 1778035502 | 9.44° C | 98% | 1009.8 hPa | 1.02 mm | - | - | - |
| 1778034602 | 9.44° C | 97% | 1009.8 hPa | 0.51 mm | - | - | - |
| 1778033701 | 9.44° C | 97% | 1009.8 hPa | 0.51 mm | - | - | - |
| 1778032742 | 9.44° C | 97% | 1009.8 hPa | 0.51 mm | - | - | - |
| 1778032142 | 9.44° C | 97% | 1009.8 hPa | 0.25 mm | - | - | - |
| 1778031302 | 8.89° C | 97% | 1010.2 hPa | 1.27 mm | - | - | - |
* Rain latest hour (hover to see other rain measurements)
** Current wind speed in m/s (hover to see current wind gust speed)